createdAt,value
2022-09-18T00:00:34.854Z,100.00
2022-09-18T00:03:48.604Z,100.00
2022-09-18T00:07:00.895Z,100.00
2022-09-18T00:10:15.021Z,100.00
2022-09-18T00:13:26.609Z,100.00
2022-09-18T00:16:38.621Z,100.00
2022-09-18T00:19:50.542Z,100.00
2022-09-18T00:23:02.170Z,100.00
2022-09-18T00:26:16.313Z,100.00
2022-09-18T00:29:27.949Z,100.00
2022-09-18T00:32:39.673Z,100.00
2022-09-18T00:35:51.877Z,100.00
2022-09-18T00:39:05.319Z,100.00
2022-09-18T00:42:19.203Z,100.00
2022-09-18T00:45:31.323Z,100.00
2022-09-18T00:48:51.676Z,100.00
2022-09-18T00:52:05.927Z,100.00
2022-09-18T00:55:20.391Z,100.00
2022-09-18T00:58:32.572Z,100.00
2022-09-18T01:01:44.316Z,100.00
2022-09-18T01:04:57.114Z,100.00
2022-09-18T01:08:22.616Z,100.00
2022-09-18T01:11:44.182Z,100.00
2022-09-18T01:15:01.778Z,100.00
2022-09-18T01:18:21.296Z,100.00
2022-09-18T01:21:39.932Z,100.00
2022-09-18T01:25:10.616Z,100.00
2022-09-18T01:28:28.233Z,100.00
2022-09-18T01:31:44.600Z,100.00
2022-09-18T01:35:14.004Z,100.00
2022-09-18T01:38:23.442Z,100.00
2022-09-18T01:41:37.225Z,100.00
2022-09-18T01:44:54.144Z,100.00
2022-09-18T01:48:11.574Z,100.00
2022-09-18T01:51:30.610Z,100.00
2022-09-18T01:54:46.532Z,100.00
2022-09-18T01:58:03.220Z,100.00
2022-09-18T02:01:19.455Z,100.00
2022-09-18T02:04:35.536Z,100.00
2022-09-18T02:07:54.192Z,100.00
2022-09-18T02:11:12.043Z,100.00
2022-09-18T02:14:27.731Z,100.00
2022-09-18T02:17:48.125Z,100.00
2022-09-18T02:21:02.409Z,100.00
2022-09-18T02:24:18.067Z,100.00
2022-09-18T02:27:32.203Z,100.00
2022-09-18T02:30:46.875Z,100.00
2022-09-18T02:33:58.561Z,100.00
2022-09-18T02:37:21.455Z,100.00
2022-09-18T02:40:47.981Z,100.00
2022-09-18T02:44:04.581Z,100.00
2022-09-18T02:47:24.455Z,100.00
2022-09-18T02:50:42.328Z,100.00
2022-09-18T02:54:00.689Z,100.00
2022-09-18T02:57:18.299Z,100.00
2022-09-18T03:00:30.848Z,100.00
2022-09-18T03:03:45.145Z,100.00
2022-09-18T03:06:58.449Z,100.00
2022-09-18T03:10:11.657Z,100.00
2022-09-18T03:13:23.170Z,100.00
2022-09-18T03:16:35.186Z,100.00
2022-09-18T03:19:47.638Z,100.00
2022-09-18T03:22:59.426Z,100.00
2022-09-18T03:26:14.352Z,100.00
2022-09-18T03:29:26.130Z,100.00
2022-09-18T03:32:38.117Z,100.00
2022-09-18T03:35:51.734Z,100.00
2022-09-18T03:39:06.474Z,100.00
2022-09-18T03:42:18.983Z,100.00
2022-09-18T03:45:30.922Z,100.00
2022-09-18T03:48:42.632Z,100.00
2022-09-18T03:51:54.444Z,100.00
2022-09-18T03:55:06.662Z,100.00
2022-09-18T03:58:26.410Z,100.00
2022-09-18T04:01:57.634Z,100.00
2022-09-18T04:05:15.428Z,100.00
2022-09-18T04:08:45.712Z,100.00
2022-09-18T04:11:59.137Z,100.00
2022-09-18T04:15:13.613Z,100.00
2022-09-18T04:18:25.472Z,100.00
2022-09-18T04:21:37.129Z,100.00
2022-09-18T04:24:50.311Z,100.00
2022-09-18T04:28:02.355Z,100.00
2022-09-18T04:31:14.675Z,100.00
2022-09-18T04:34:26.580Z,100.00
2022-09-18T04:37:38.381Z,100.00
2022-09-18T04:40:50.777Z,100.00
2022-09-18T04:44:02.509Z,100.00
2022-09-18T04:47:14.366Z,100.00
2022-09-18T04:50:26.612Z,100.00
2022-09-18T04:53:58.436Z,100.00
2022-09-18T04:57:10.941Z,100.00
2022-09-18T05:00:23.332Z,100.00
2022-09-18T05:03:36.037Z,100.00
2022-09-18T05:06:48.174Z,100.00
2022-09-18T05:10:01.090Z,100.00
2022-09-18T05:13:13.407Z,100.00
2022-09-18T05:16:27.709Z,100.00
2022-09-18T05:19:41.319Z,100.00
2022-09-18T05:22:54.767Z,100.00
2022-09-18T05:26:07.553Z,100.00
2022-09-18T05:29:19.315Z,100.00
2022-09-18T05:32:31.261Z,100.00
2022-09-18T05:35:44.175Z,100.00
2022-09-18T05:38:55.725Z,100.00
2022-09-18T05:42:09.265Z,100.00
2022-09-18T05:45:21.172Z,100.00
2022-09-18T05:48:34.130Z,100.00
2022-09-18T05:51:46.499Z,100.00
2022-09-18T05:54:59.028Z,100.00
2022-09-18T05:58:16.440Z,100.00
2022-09-18T06:01:28.369Z,100.00
2022-09-18T06:04:45.195Z,100.00
2022-09-18T06:07:59.984Z,100.00
2022-09-18T06:11:12.380Z,100.00
2022-09-18T06:14:25.934Z,100.00
2022-09-18T06:17:38.227Z,100.00
2022-09-18T06:20:57.400Z,100.00
2022-09-18T06:24:11.284Z,100.00
2022-09-18T06:27:30.989Z,100.00
2022-09-18T06:30:43.152Z,100.00
2022-09-18T06:33:56.726Z,100.00
2022-09-18T06:37:09.543Z,100.00
2022-09-18T06:40:26.910Z,100.00
2022-09-18T06:43:55.864Z,100.00
2022-09-18T06:47:13.290Z,100.00
2022-09-18T06:50:28.071Z,99.94
2022-09-18T06:53:40.324Z,96.98
2022-09-18T06:56:53.962Z,96.50
2022-09-18T07:00:07.297Z,97.00
2022-09-18T07:03:21.104Z,98.80
2022-09-18T07:06:40.980Z,98.81
2022-09-18T07:09:52.792Z,99.75
2022-09-18T07:13:12.721Z,99.62
2022-09-18T07:16:26.438Z,98.24
2022-09-18T07:19:38.681Z,99.12
2022-09-18T07:23:00.483Z,99.68
2022-09-18T07:26:14.625Z,99.15
2022-09-18T07:29:26.941Z,98.67
2022-09-18T07:32:42.641Z,98.07
2022-09-18T07:35:56.502Z,97.01
2022-09-18T07:39:09.217Z,96.59
2022-09-18T07:42:35.802Z,95.46
2022-09-18T07:45:49.649Z,90.00
2022-09-18T07:49:01.297Z,89.35
2022-09-18T07:52:14.447Z,90.21
2022-09-18T07:55:29.906Z,91.75
2022-09-18T07:58:43.581Z,93.10
2022-09-18T08:01:57.559Z,93.09
2022-09-18T08:05:13.166Z,93.47
2022-09-18T08:08:26.999Z,93.48
2022-09-18T08:11:49.773Z,94.29
2022-09-18T08:15:03.679Z,94.78
2022-09-18T08:18:28.288Z,91.90
2022-09-18T08:21:45.589Z,92.49
2022-09-18T08:24:59.997Z,92.78
2022-09-18T08:28:14.651Z,94.50
2022-09-18T08:31:29.080Z,95.69
2022-09-18T08:34:42.626Z,97.01
2022-09-18T08:37:56.782Z,96.70
2022-09-18T08:41:35.402Z,95.96
2022-09-18T08:44:54.394Z,95.66
2022-09-18T08:48:14.450Z,91.36
2022-09-18T08:51:34.805Z,87.51
2022-09-18T08:54:56.876Z,84.01
2022-09-18T08:58:22.986Z,81.68
2022-09-18T09:01:43.845Z,84.40
2022-09-18T09:05:02.987Z,83.91
2022-09-18T09:09:01.285Z,85.58
2022-09-18T09:12:21.918Z,88.85
2022-09-18T09:15:45.859Z,85.55
2022-09-18T09:19:07.400Z,84.05
2022-09-18T09:22:24.515Z,84.09
2022-09-18T09:25:46.704Z,84.86
2022-09-18T09:29:05.359Z,87.16
2022-09-18T09:32:39.211Z,90.51
2022-09-18T09:35:59.784Z,90.79
2022-09-18T09:39:20.899Z,87.53
2022-09-18T09:42:38.357Z,84.21
2022-09-18T09:45:54.535Z,77.07
2022-09-18T09:49:11.714Z,72.55
2022-09-18T09:52:26.207Z,72.04
2022-09-18T09:55:47.634Z,75.48
2022-09-18T09:59:08.420Z,78.22
2022-09-18T10:02:48.076Z,78.45
2022-09-18T10:06:09.874Z,72.47
2022-09-18T10:09:28.974Z,68.99
2022-09-18T10:12:49.215Z,67.86
2022-09-18T10:16:06.301Z,68.91
2022-09-18T10:19:22.035Z,72.65
2022-09-18T10:22:34.873Z,76.18
2022-09-18T10:25:53.845Z,76.42
2022-09-18T10:29:07.111Z,76.14
2022-09-18T10:32:39.944Z,75.99
2022-09-18T10:35:53.919Z,77.87
2022-09-18T10:39:16.247Z,79.43
2022-09-18T10:42:32.856Z,81.43
2022-09-18T10:45:48.939Z,88.87
2022-09-18T10:49:10.791Z,97.46
2022-09-18T10:52:41.630Z,100.00
2022-09-18T10:55:57.884Z,95.15
2022-09-18T10:59:40.524Z,89.44
2022-09-18T11:02:56.124Z,92.05
2022-09-18T11:06:11.607Z,85.03
2022-09-18T11:09:31.156Z,81.86
2022-09-18T11:12:43.361Z,77.38
2022-09-18T11:16:02.578Z,78.00
2022-09-18T11:19:24.563Z,80.12
2022-09-18T11:22:49.961Z,80.25
2022-09-18T11:26:33.409Z,84.52
2022-09-18T11:29:47.068Z,86.11
2022-09-18T11:33:04.200Z,92.12
2022-09-18T11:36:20.519Z,97.07
2022-09-18T11:39:42.128Z,98.71
2022-09-18T11:42:59.323Z,100.00
2022-09-18T11:46:18.895Z,100.00
2022-09-18T11:49:35.692Z,100.00
2022-09-18T11:52:50.992Z,100.00
2022-09-18T11:56:11.547Z,100.00
2022-09-18T11:59:29.942Z,100.00
2022-09-18T12:02:51.550Z,98.72
2022-09-18T12:06:09.258Z,97.78
2022-09-18T12:09:28.359Z,95.63
2022-09-18T12:12:45.354Z,93.27
2022-09-18T12:16:04.604Z,91.45
2022-09-18T12:19:21.624Z,89.99
2022-09-18T12:22:36.078Z,87.33
2022-09-18T12:25:54.023Z,87.38
2022-09-18T12:29:26.417Z,88.19
2022-09-18T12:33:00.072Z,89.33
2022-09-18T12:36:38.862Z,90.87
2022-09-18T12:40:25.817Z,93.79
2022-09-18T12:44:00.914Z,96.87
2022-09-18T12:47:24.788Z,98.99
2022-09-18T12:50:57.414Z,98.89
2022-09-18T12:54:33.524Z,98.40
2022-09-18T12:57:56.317Z,94.42
2022-09-18T13:01:15.475Z,94.51
2022-09-18T13:04:34.032Z,95.67
2022-09-18T13:07:51.260Z,96.25
2022-09-18T13:11:07.129Z,96.64
2022-09-18T13:14:23.487Z,99.14
2022-09-18T13:17:42.225Z,100.00
2022-09-18T13:20:54.107Z,100.00
2022-09-18T13:24:07.715Z,100.00
2022-09-18T13:27:21.895Z,100.00
2022-09-18T13:30:37.733Z,100.00
2022-09-18T13:33:58.255Z,100.00
2022-09-18T13:37:19.671Z,100.00
2022-09-18T13:40:42.593Z,100.00
2022-09-18T13:44:02.829Z,100.00
2022-09-18T13:47:19.882Z,100.00
2022-09-18T13:50:29.901Z,97.64
2022-09-18T13:53:48.105Z,98.47
2022-09-18T13:57:26.745Z,98.75
2022-09-18T14:00:47.514Z,100.00
2022-09-18T14:03:59.470Z,100.00
2022-09-18T14:07:20.903Z,100.00
2022-09-18T14:10:47.977Z,100.00
2022-09-18T14:13:57.722Z,100.00
2022-09-18T14:17:20.985Z,100.00
2022-09-18T14:20:34.071Z,100.00
2022-09-18T14:24:43.364Z,100.00
2022-09-18T14:28:03.279Z,100.00
2022-09-18T14:31:25.020Z,100.00
2022-09-18T14:34:43.597Z,100.00
2022-09-18T14:37:55.361Z,100.00
2022-09-18T14:41:17.564Z,100.00
2022-09-18T14:44:31.745Z,100.00
2022-09-18T14:47:44.648Z,100.00
2022-09-18T14:51:09.748Z,100.00
2022-09-18T14:54:28.272Z,100.00
2022-09-18T14:57:45.825Z,100.00
2022-09-18T15:01:01.825Z,100.00
2022-09-18T15:04:19.548Z,100.00
2022-09-18T15:07:31.674Z,100.00
2022-09-18T15:10:47.932Z,100.00
2022-09-18T15:14:02.177Z,100.00
2022-09-18T15:17:23.664Z,100.00
2022-09-18T15:20:36.387Z,100.00
2022-09-18T15:23:48.203Z,100.00
2022-09-18T15:27:03.625Z,100.00
2022-09-18T15:30:22.809Z,100.00
2022-09-18T15:33:36.254Z,100.00
2022-09-18T15:36:48.603Z,100.00
2022-09-18T15:40:11.119Z,100.00
2022-09-18T15:43:52.779Z,100.00
2022-09-18T15:47:24.690Z,100.00
2022-09-18T15:50:44.474Z,100.00
2022-09-18T15:54:29.046Z,100.00
2022-09-18T15:57:42.177Z,100.00
2022-09-18T16:01:01.294Z,100.00
2022-09-18T16:04:25.259Z,100.00
2022-09-18T16:07:37.596Z,100.00
2022-09-18T16:10:56.253Z,100.00
2022-09-18T16:14:08.558Z,100.00
2022-09-18T16:17:46.362Z,100.00
2022-09-18T16:21:12.696Z,100.00
2022-09-18T16:24:32.592Z,100.00
2022-09-18T16:27:50.105Z,100.00
2022-09-18T16:31:02.293Z,100.00
2022-09-18T16:34:28.926Z,100.00
2022-09-18T16:37:41.545Z,100.00
2022-09-18T16:40:53.871Z,100.00
2022-09-18T16:44:06.794Z,100.00
2022-09-18T16:47:20.206Z,100.00
2022-09-18T16:50:32.231Z,100.00
2022-09-18T16:53:44.195Z,100.00
2022-09-18T16:56:59.098Z,100.00
2022-09-18T17:00:15.289Z,100.00
2022-09-18T17:03:27.327Z,100.00
2022-09-18T17:06:39.863Z,100.00
2022-09-18T17:09:52.236Z,100.00
2022-09-18T17:13:04.901Z,100.00
2022-09-18T17:16:35.317Z,100.00
2022-09-18T17:19:33.442Z,100.00
2022-09-18T17:22:46.099Z,100.00
2022-09-18T17:25:58.801Z,100.00
2022-09-18T17:29:14.257Z,100.00
2022-09-18T17:32:26.251Z,100.00
2022-09-18T17:35:38.644Z,100.00
2022-09-18T17:38:51.570Z,100.00
2022-09-18T17:42:04.033Z,100.00
2022-09-18T17:45:17.171Z,100.00
2022-09-18T17:48:30.992Z,100.00
2022-09-18T17:51:42.866Z,100.00
2022-09-18T17:54:54.890Z,100.00
2022-09-18T17:58:06.655Z,100.00
2022-09-18T18:01:20.698Z,100.00
2022-09-18T18:04:32.835Z,100.00
2022-09-18T18:07:44.969Z,100.00
2022-09-18T18:10:56.913Z,100.00
2022-09-18T18:14:09.427Z,100.00
2022-09-18T18:17:21.989Z,100.00
2022-09-18T18:20:34.025Z,100.00
2022-09-18T18:23:47.820Z,100.00
2022-09-18T18:27:00.076Z,100.00
2022-09-18T18:30:16.305Z,100.00
2022-09-18T18:33:28.237Z,100.00
2022-09-18T18:36:40.983Z,100.00
2022-09-18T18:39:53.602Z,100.00
2022-09-18T18:43:06.079Z,100.00
2022-09-18T18:46:19.627Z,100.00
2022-09-18T18:49:34.379Z,100.00
2022-09-18T18:52:47.102Z,100.00
2022-09-18T18:55:59.265Z,100.00
2022-09-18T18:59:15.434Z,100.00
2022-09-18T19:02:27.624Z,100.00
2022-09-18T19:05:39.582Z,100.00
2022-09-18T19:08:53.248Z,100.00
2022-09-18T19:12:05.487Z,100.00
2022-09-18T19:15:18.577Z,100.00
2022-09-18T19:18:30.589Z,100.00
2022-09-18T19:21:44.425Z,100.00
2022-09-18T19:24:56.338Z,100.00
2022-09-18T19:28:08.873Z,100.00
2022-09-18T19:31:21.493Z,100.00
2022-09-18T19:34:33.878Z,100.00
2022-09-18T19:37:46.043Z,100.00
2022-09-18T19:40:59.221Z,100.00
2022-09-18T19:44:15.345Z,100.00
2022-09-18T19:47:33.221Z,100.00
2022-09-18T19:50:47.320Z,100.00
2022-09-18T19:53:59.887Z,100.00
2022-09-18T19:57:13.062Z,100.00
2022-09-18T20:00:25.997Z,100.00
2022-09-18T20:03:39.246Z,100.00
2022-09-18T20:06:51.461Z,100.00
2022-09-18T20:10:03.525Z,100.00
2022-09-18T20:13:16.436Z,100.00
2022-09-18T20:16:28.602Z,100.00
2022-09-18T20:19:42.247Z,100.00
2022-09-18T20:22:58.050Z,100.00
2022-09-18T20:26:14.483Z,100.00
2022-09-18T20:29:27.493Z,100.00
2022-09-18T20:32:39.350Z,100.00
2022-09-18T20:36:00.490Z,100.00
2022-09-18T20:39:13.097Z,100.00
2022-09-18T20:42:26.015Z,100.00
2022-09-18T20:45:39.468Z,100.00
2022-09-18T20:48:55.115Z,100.00
2022-09-18T20:52:13.602Z,100.00
2022-09-18T20:55:25.499Z,100.00
2022-09-18T20:58:39.441Z,100.00
2022-09-18T21:01:52.414Z,100.00
2022-09-18T21:05:04.356Z,100.00
2022-09-18T21:08:16.974Z,100.00
2022-09-18T21:11:32.915Z,100.00
2022-09-18T21:14:44.631Z,100.00
2022-09-18T21:17:57.927Z,100.00
2022-09-18T21:21:12.517Z,100.00
2022-09-18T21:24:25.432Z,100.00
2022-09-18T21:27:37.080Z,100.00
2022-09-18T21:30:48.779Z,100.00
2022-09-18T21:34:01.788Z,100.00
2022-09-18T21:37:15.501Z,100.00
2022-09-18T21:40:28.427Z,100.00
2022-09-18T21:43:43.827Z,100.00
2022-09-18T21:46:56.140Z,100.00
2022-09-18T21:50:08.264Z,100.00
2022-09-18T21:53:20.076Z,100.00
2022-09-18T21:56:32.422Z,100.00
2022-09-18T21:59:44.334Z,100.00
2022-09-18T23:12:27.101Z,100.00
2022-09-18T23:20:04.733Z,100.00
2022-09-18T23:40:12.307Z,100.00
2022-09-18T23:47:05.301Z,100.00
2022-09-18T23:50:19.590Z,100.00
2022-09-18T23:53:35.173Z,100.00
2022-09-18T23:56:46.060Z,100.00
2022-09-18T23:59:58.734Z,100.00
